Monday, September 01, 2014
18:47 UTC
  |  Log In   |  Register Free
Airport Search:

Carmi Municipal Airport
(KCUL)

Carmi Municipal Airport Diagram
No Airport Diagram Available

FAA data valid effective July 24, 2014 until September 18, 2014 (unless otherwise noted).

 
 
 
 
 
 
 
 
 
 
 
 
 
 

Current Aviation Weather for Carmi Municipal Airport (KCUL)

The most recent METAR observation for KCUL was updated at: 1755 UTC
METAR Summary (Translated METAR)
KCUL
011755Z AUTO 20012G19KT 10SM CLR 28/23 A2990 RMK AO2 T02800231 10291 20240
KFWC
(22.1 nm NW from KCUL)
011755Z AUTO 20013G19KT 10SM CLR 29/24 A2989 RMK AO2
TAF
No TAF information found within 50 nm of KCUL
  Airport Weather Conditions for KCUL

 Current Weather at CUL
82° F
Fair
South winds at 13.8 mph
CUL NOAA Radar

Pressure: 29.90 in
Humidity: 75%
Wind: from the South at 13.8 gusting to 21.9 MPH (12 gusting to 19 KT)
Dew Point: 73.6°F
Visibility: 10.00 mi


Airport Weather Forecast for KCUL

Translated METAR and TAF for KCUL
Translated METAR for KCUL (1841 UTC 01 September 2014)
found at http://aviationweather.gov/adds/metars/
 
METAR text: KCUL 011835Z AUTO 20017G27KT 7SM CLR 29/23 A2989 RMK AO2 T02900230
Conditions at: KCUL (CARMI MUNI , IL, US) observed 1835 UTC 01 September 2014
Temperature: 29.0°C (84°F)
Dewpoint: 23.0°C (73°F) [RH = 70%]
Pressure (altimeter): 29.89 inches Hg (1012.3 mb)
Winds: from the SSW (200 degrees) at 20 MPH (17 knots; 8.8 m/s)
gusting to 31 MPH (27 knots; 14.0 m/s)
Visibility: 7 miles (11 km)
Ceiling: at least 12,000 feet AGL
Clouds: sky clear below 12,000 feet AGL
Weather: automated observation with no human augmentation;
there may or may not be significant weather present at this time
Translated TAF for KCUL

There is no translated TAF available for this airport

Find All Airport Services Find A Hotel Find A Rental Car Find A Golf Course Find A Restaurant $100 Hamburger



FBO's on the Field
FBO Company Facility Photos Services Transportation Aviation Fuel Prices: Prices include tax
Catering Weather Repair Courtesy Rental Type 100LL JetA JetA+ MOGAS 8087
 
Carmi Municipal Airport

This FBO has not yet been rated
FS:Shell
Last Updated: Aug-26
Login to update fuel prices
SS:
Contact Carmi Municipal AirportMore FBO Information
 
Add another FBO Facility Photos Catering Weather Repair Courtesy Rental Type 100LL JetA JetA+ MOGAS 8087
Services Transportation Aviation Fuel Prices: Prices include tax


GlobalAir.com Airport Resource Center model-print
model-print
model-print
model-print